createdAt,value
2018-07-06T00:00:27.366Z,3.70
2018-07-06T00:01:27.466Z,3.40
2018-07-06T00:02:27.567Z,4.60
2018-07-06T00:03:27.655Z,3.40
2018-07-06T00:04:27.779Z,3.40
2018-07-06T00:05:27.898Z,4.20
2018-07-06T00:06:27.992Z,3.90
2018-07-06T00:07:28.086Z,4.50
2018-07-06T00:08:28.186Z,3.30
2018-07-06T00:09:28.288Z,3.70
2018-07-06T00:10:28.432Z,4.30
2018-07-06T00:11:28.548Z,4.30
2018-07-06T00:12:28.691Z,5.30
2018-07-06T00:13:28.764Z,4.60
2018-07-06T00:14:28.869Z,3.60
2018-07-06T00:15:28.988Z,3.70
2018-07-06T00:16:29.081Z,4.10
2018-07-06T00:17:29.187Z,3.50
2018-07-06T00:18:29.277Z,4.30
2018-07-06T00:19:29.380Z,3.80
2018-07-06T00:20:29.490Z,4.20
2018-07-06T00:21:29.595Z,4.80
2018-07-06T00:22:29.678Z,4.60
2018-07-06T00:23:29.777Z,4.00
2018-07-06T00:24:29.877Z,3.40
2018-07-06T00:25:29.974Z,3.70
2018-07-06T00:26:30.075Z,3.80
2018-07-06T00:27:30.183Z,3.70
2018-07-06T00:28:30.281Z,8.60
2018-07-06T00:29:30.378Z,4.80
2018-07-06T00:30:30.485Z,5.10
2018-07-06T00:31:30.587Z,4.20
2018-07-06T00:32:30.688Z,3.40
2018-07-06T00:33:30.788Z,3.30
2018-07-06T00:34:30.882Z,4.10
2018-07-06T00:35:30.983Z,3.50
2018-07-06T00:36:31.090Z,3.50
2018-07-06T00:37:31.184Z,3.70
2018-07-06T00:38:31.280Z,6.20
2018-07-06T00:39:31.392Z,5.30
2018-07-06T00:40:31.484Z,3.60
2018-07-06T00:41:31.586Z,3.60
2018-07-06T00:42:31.698Z,4.50
2018-07-06T00:43:31.804Z,4.90
2018-07-06T00:44:31.904Z,3.70
2018-07-06T00:45:32.011Z,3.70
2018-07-06T00:46:32.100Z,3.50
2018-07-06T00:47:32.208Z,3.40
2018-07-06T00:48:32.324Z,3.80
2018-07-06T00:49:32.411Z,3.30
2018-07-06T00:50:32.510Z,3.60
2018-07-06T00:51:32.613Z,5.30
2018-07-06T00:52:32.710Z,3.60
2018-07-06T00:53:32.818Z,4.60
2018-07-06T00:54:32.910Z,3.80
2018-07-06T00:55:33.011Z,3.30
2018-07-06T00:56:33.116Z,3.80
2018-07-06T00:57:33.220Z,3.50
2018-07-06T00:58:33.319Z,4.90
2018-07-06T00:59:33.418Z,3.50
2018-07-06T01:00:33.502Z,3.90
2018-07-06T01:01:33.622Z,3.60
2018-07-06T01:02:33.715Z,3.60
2018-07-06T01:03:33.823Z,3.40
2018-07-06T01:04:33.930Z,3.80
2018-07-06T01:05:34.024Z,4.10
2018-07-06T01:06:34.161Z,3.70
2018-07-06T01:07:34.258Z,3.90
2018-07-06T01:08:34.366Z,3.70
2018-07-06T01:09:34.470Z,3.70
2018-07-06T01:10:34.569Z,4.80
2018-07-06T01:11:34.660Z,3.60
2018-07-06T01:12:34.758Z,3.80
2018-07-06T01:13:34.853Z,3.70
2018-07-06T01:14:34.939Z,3.80
2018-07-06T01:15:35.054Z,4.00
2018-07-06T01:16:35.155Z,4.00
2018-07-06T01:17:35.259Z,3.40
2018-07-06T01:18:35.354Z,3.90
2018-07-06T01:19:35.466Z,3.60
2018-07-06T01:20:35.562Z,3.40
2018-07-06T01:21:35.653Z,3.50
2018-07-06T01:22:35.754Z,3.90
2018-07-06T01:23:35.858Z,4.40
2018-07-06T01:24:35.958Z,3.70
2018-07-06T01:25:36.109Z,4.70
2018-07-06T01:26:36.209Z,3.60
2018-07-06T01:27:36.317Z,4.00
2018-07-06T01:28:36.417Z,4.50
2018-07-06T01:29:36.517Z,4.10
2018-07-06T01:30:36.616Z,5.20
2018-07-06T01:31:36.731Z,4.40
2018-07-06T01:32:36.904Z,3.40
2018-07-06T01:33:36.870Z,3.60
2018-07-06T01:34:36.998Z,5.50
2018-07-06T01:35:37.098Z,3.70
2018-07-06T01:36:37.202Z,3.90
2018-07-06T01:37:37.314Z,4.30
2018-07-06T01:38:37.410Z,3.80
2018-07-06T01:39:37.514Z,3.60
2018-07-06T01:40:37.603Z,3.50
2018-07-06T01:41:37.705Z,3.60
2018-07-06T01:42:37.803Z,3.60
2018-07-06T01:43:37.904Z,4.30
2018-07-06T01:44:38.007Z,3.60
2018-07-06T01:45:38.108Z,3.90
2018-07-06T01:46:38.209Z,3.30
2018-07-06T01:47:38.308Z,3.60
2018-07-06T01:48:38.409Z,3.50
2018-07-06T01:49:38.510Z,6.10
2018-07-06T01:50:38.616Z,4.00
2018-07-06T01:51:38.713Z,3.60
2018-07-06T01:52:38.817Z,5.20
2018-07-06T01:53:38.919Z,3.50
2018-07-06T01:54:39.019Z,3.80
2018-07-06T01:55:39.121Z,3.80
2018-07-06T01:56:39.219Z,4.50
2018-07-06T01:57:39.320Z,3.60
2018-07-06T01:58:39.418Z,3.80
2018-07-06T01:59:39.521Z,4.40
2018-07-06T02:00:39.621Z,4.10
2018-07-06T02:01:39.723Z,5.40
2018-07-06T02:02:39.823Z,4.20
2018-07-06T02:03:39.926Z,4.10
2018-07-06T02:04:40.031Z,3.90
2018-07-06T02:05:40.133Z,4.20
2018-07-06T02:06:40.234Z,3.80
2018-07-06T02:07:40.334Z,4.10
2018-07-06T02:08:40.437Z,3.90
2018-07-06T02:09:40.540Z,3.80
2018-07-06T02:10:40.637Z,4.20
2018-07-06T02:11:40.740Z,3.50
2018-07-06T02:12:40.845Z,3.90
2018-07-06T02:13:40.939Z,3.90
2018-07-06T02:14:41.041Z,3.70
2018-07-06T02:15:41.141Z,4.70
2018-07-06T02:16:41.246Z,4.00
2018-07-06T02:17:41.343Z,3.90
2018-07-06T02:18:41.444Z,4.10
2018-07-06T02:19:41.547Z,3.90
2018-07-06T02:20:41.645Z,3.90
2018-07-06T02:21:41.748Z,4.20
2018-07-06T02:22:41.845Z,4.00
2018-07-06T02:23:41.957Z,4.00
2018-07-06T02:24:42.054Z,4.10
2018-07-06T02:25:42.156Z,4.20
2018-07-06T02:26:42.255Z,4.30
2018-07-06T02:27:42.356Z,4.10
2018-07-06T02:28:42.458Z,3.50
2018-07-06T02:29:42.559Z,6.40
2018-07-06T02:30:42.670Z,4.60
2018-07-06T02:31:42.771Z,5.00
2018-07-06T02:32:42.871Z,3.90
2018-07-06T02:33:42.974Z,3.60
2018-07-06T02:34:43.073Z,3.70
2018-07-06T02:35:43.174Z,3.80
2018-07-06T02:36:43.274Z,4.90
2018-07-06T02:37:43.380Z,3.90
2018-07-06T02:38:43.479Z,4.60
2018-07-06T02:39:43.579Z,4.20
2018-07-06T02:40:43.679Z,3.90
2018-07-06T02:41:43.780Z,4.00
2018-07-06T02:42:43.881Z,4.40
2018-07-06T02:43:43.983Z,4.00
2018-07-06T02:44:44.093Z,4.40
2018-07-06T02:45:44.193Z,5.20
2018-07-06T02:46:44.292Z,4.50
2018-07-06T02:47:44.393Z,4.40
2018-07-06T02:48:44.494Z,4.40
2018-07-06T02:49:44.596Z,4.30
2018-07-06T02:50:44.697Z,4.60
2018-07-06T02:51:44.805Z,4.30
2018-07-06T02:52:44.904Z,5.20
2018-07-06T02:53:45.009Z,5.50
2018-07-06T02:54:45.111Z,4.50
2018-07-06T02:55:45.205Z,5.10
2018-07-06T02:56:45.307Z,4.30
2018-07-06T02:57:45.409Z,4.40
2018-07-06T02:58:45.513Z,4.40
2018-07-06T02:59:45.614Z,4.50
2018-07-06T03:00:45.728Z,5.60
2018-07-06T03:01:45.818Z,4.60
2018-07-06T03:02:45.919Z,4.70
2018-07-06T03:03:46.021Z,4.70
2018-07-06T03:04:46.120Z,4.50
2018-07-06T03:05:46.224Z,4.30
2018-07-06T03:06:46.324Z,4.10
2018-07-06T03:07:46.433Z,4.70
2018-07-06T03:08:46.522Z,4.70
2018-07-06T03:09:46.627Z,4.60
2018-07-06T03:10:46.725Z,6.20
2018-07-06T03:11:46.827Z,4.30
2018-07-06T03:12:46.934Z,5.20
2018-07-06T03:13:47.033Z,4.60
2018-07-06T03:14:47.137Z,4.90
2018-07-06T03:15:47.235Z,4.80
2018-07-06T03:16:47.338Z,5.50
2018-07-06T03:17:47.440Z,4.60
2018-07-06T03:18:47.539Z,4.40
2018-07-06T03:19:47.644Z,4.40
2018-07-06T03:20:47.743Z,4.70
2018-07-06T03:21:47.844Z,5.10
2018-07-06T03:22:47.943Z,4.40
2018-07-06T03:23:48.042Z,4.50
2018-07-06T03:24:48.143Z,4.40
2018-07-06T03:25:48.247Z,4.80
2018-07-06T03:26:48.356Z,4.90
2018-07-06T03:27:48.494Z,4.80
2018-07-06T03:28:48.772Z,4.80
2018-07-06T03:29:48.656Z,4.80
2018-07-06T03:30:48.757Z,5.10
2018-07-06T03:31:48.857Z,4.30
2018-07-06T03:32:48.956Z,4.50
2018-07-06T03:33:49.064Z,4.60
2018-07-06T03:34:49.166Z,4.90
2018-07-06T03:35:49.266Z,4.30
2018-07-06T03:36:49.367Z,5.00
2018-07-06T03:37:49.467Z,5.10
2018-07-06T03:38:49.567Z,4.70
2018-07-06T03:39:49.674Z,4.40
2018-07-06T03:40:49.782Z,4.90
2018-07-06T03:41:49.888Z,4.50
2018-07-06T03:42:49.988Z,4.40
2018-07-06T03:43:50.087Z,5.00
2018-07-06T03:44:50.187Z,4.40
2018-07-06T03:45:50.284Z,4.70
2018-07-06T03:46:50.385Z,4.60
2018-07-06T03:47:50.489Z,4.50
2018-07-06T03:48:50.592Z,4.40
2018-07-06T03:49:50.693Z,4.60
2018-07-06T03:50:50.792Z,4.70
2018-07-06T03:51:50.894Z,5.20
2018-07-06T03:52:50.994Z,4.50
2018-07-06T03:53:51.092Z,4.60
2018-07-06T03:54:51.243Z,4.60
2018-07-06T03:55:51.322Z,4.90
2018-07-06T03:56:51.431Z,4.90
2018-07-06T03:57:51.528Z,4.60
2018-07-06T03:58:51.625Z,5.10
2018-07-06T03:59:51.715Z,4.80
2018-07-06T04:00:51.818Z,4.50
2018-07-06T04:01:51.992Z,4.70
2018-07-06T04:02:51.958Z,4.60
2018-07-06T04:03:52.086Z,4.70
2018-07-06T04:04:52.197Z,4.00
2018-07-06T04:05:52.293Z,4.80
2018-07-06T04:06:52.415Z,4.50
2018-07-06T04:07:52.503Z,4.50
2018-07-06T04:08:52.602Z,4.30
2018-07-06T04:09:52.697Z,4.80
2018-07-06T04:10:52.833Z,4.70
2018-07-06T04:11:52.920Z,4.50
2018-07-06T04:12:53.045Z,4.30
2018-07-06T04:13:53.128Z,4.30
2018-07-06T04:14:53.247Z,4.10
2018-07-06T04:15:53.378Z,4.40
2018-07-06T04:16:53.405Z,4.50
2018-07-06T04:17:53.514Z,4.70
2018-07-06T04:18:53.650Z,6.60
2018-07-06T04:19:53.756Z,4.30
2018-07-06T04:20:53.854Z,4.80
2018-07-06T04:21:54.065Z,4.30
2018-07-06T04:22:54.052Z,4.30
2018-07-06T04:23:54.207Z,4.20
2018-07-06T04:24:54.292Z,4.10
2018-07-06T04:25:54.385Z,4.30
2018-07-06T04:26:54.489Z,3.90
2018-07-06T04:27:54.581Z,4.90
2018-07-06T04:28:54.685Z,4.60
2018-07-06T04:29:54.790Z,4.00
2018-07-06T04:30:54.890Z,4.40
2018-07-06T04:31:54.993Z,6.70
2018-07-06T04:32:55.101Z,4.50
2018-07-06T04:33:55.197Z,4.20
2018-07-06T04:34:55.310Z,4.40
2018-07-06T04:35:55.439Z,4.80
2018-07-06T04:36:55.530Z,4.20
2018-07-06T04:37:55.657Z,4.50
2018-07-06T04:38:55.757Z,4.30
2018-07-06T04:39:55.865Z,4.20
2018-07-06T04:40:55.974Z,4.30
2018-07-06T04:41:56.079Z,5.10
2018-07-06T04:42:56.193Z,5.10
2018-07-06T04:43:56.295Z,4.80
2018-07-06T04:44:56.390Z,4.40
2018-07-06T04:45:56.482Z,4.30
2018-07-06T04:46:56.585Z,4.40
2018-07-06T04:47:56.675Z,4.20
2018-07-06T04:48:56.781Z,4.80
2018-07-06T04:49:56.881Z,4.50
2018-07-06T04:50:57.023Z,6.20
2018-07-06T04:51:57.098Z,4.10
2018-07-06T04:52:57.206Z,4.60
2018-07-06T04:53:57.299Z,4.10
2018-07-06T04:54:57.402Z,4.00
2018-07-06T04:55:57.539Z,4.20
2018-07-06T04:56:57.639Z,4.30
2018-07-06T04:57:57.744Z,4.50
2018-07-06T04:58:57.846Z,4.80
2018-07-06T04:59:57.995Z,4.20
2018-07-06T05:00:58.044Z,4.50
2018-07-06T05:01:58.133Z,5.20
2018-07-06T05:02:58.235Z,4.80
2018-07-06T05:03:58.335Z,4.80
2018-07-06T05:04:58.431Z,4.50
2018-07-06T05:05:58.529Z,4.70
2018-07-06T05:06:58.648Z,4.40
2018-07-06T05:07:58.748Z,4.80
2018-07-06T05:08:58.859Z,4.60
2018-07-06T05:09:58.947Z,4.90
2018-07-06T05:10:59.048Z,4.60
2018-07-06T05:11:59.162Z,6.10
2018-07-06T05:12:59.245Z,5.20
2018-07-06T05:13:59.363Z,6.10
2018-07-06T05:14:59.477Z,5.70
2018-07-06T05:15:59.567Z,5.50
2018-07-06T05:16:59.694Z,6.00
2018-07-06T05:17:59.782Z,6.20
2018-07-06T05:18:59.874Z,6.80
2018-07-06T05:19:59.990Z,7.30
2018-07-06T05:21:00.083Z,7.80
2018-07-06T05:22:00.173Z,7.60
2018-07-06T05:23:00.266Z,7.70
2018-07-06T05:24:00.380Z,8.20
2018-07-06T05:25:00.465Z,7.60
2018-07-06T05:26:00.591Z,7.90
2018-07-06T05:27:00.683Z,7.50
2018-07-06T05:28:00.782Z,7.30
2018-07-06T05:29:00.883Z,7.40
2018-07-06T05:30:00.989Z,7.20
2018-07-06T05:31:01.100Z,6.90
2018-07-06T05:32:01.229Z,6.90
2018-07-06T05:33:01.303Z,7.10
2018-07-06T05:34:01.403Z,7.30
2018-07-06T05:35:01.530Z,6.70
2018-07-06T05:36:01.645Z,6.00
2018-07-06T05:37:01.768Z,5.90
2018-07-06T05:38:01.880Z,6.10
2018-07-06T05:39:01.981Z,5.60
2018-07-06T05:40:02.134Z,5.70
2018-07-06T05:41:02.230Z,5.90
2018-07-06T05:42:02.343Z,5.80
2018-07-06T05:43:02.492Z,5.70
2018-07-06T05:44:02.602Z,5.50
2018-07-06T05:45:02.705Z,5.80
2018-07-06T05:46:02.796Z,5.90
2018-07-06T05:47:02.901Z,5.70
2018-07-06T05:48:03.036Z,6.10
2018-07-06T05:49:03.080Z,6.30
2018-07-06T05:50:03.234Z,5.70
2018-07-06T05:51:03.323Z,6.00
2018-07-06T05:52:03.420Z,5.50
2018-07-06T05:53:03.529Z,5.60
2018-07-06T05:54:03.636Z,6.00
2018-07-06T05:55:03.733Z,5.40
2018-07-06T05:56:03.838Z,5.80
2018-07-06T05:57:03.945Z,6.10
2018-07-06T05:58:04.037Z,6.60
2018-07-06T05:59:04.152Z,6.40
2018-07-06T06:00:04.279Z,5.70
2018-07-06T06:01:04.380Z,5.70
2018-07-06T06:02:04.493Z,6.00
2018-07-06T06:03:04.610Z,5.70
2018-07-06T06:04:04.711Z,6.10
2018-07-06T06:05:04.832Z,5.20
2018-07-06T06:06:04.947Z,5.50
2018-07-06T06:07:05.068Z,5.70
2018-07-06T06:08:05.172Z,5.20
2018-07-06T06:09:05.271Z,5.20
2018-07-06T06:10:05.376Z,5.20
2018-07-06T06:11:05.520Z,4.90
2018-07-06T06:12:05.639Z,4.70
2018-07-06T06:13:05.730Z,4.80
2018-07-06T06:14:05.853Z,5.30
2018-07-06T06:15:05.986Z,5.10
2018-07-06T06:16:06.167Z,4.60
2018-07-06T06:17:06.235Z,4.70
2018-07-06T06:18:06.334Z,5.00
2018-07-06T06:19:06.442Z,5.00
2018-07-06T06:20:06.543Z,4.60
2018-07-06T06:21:06.674Z,5.20
2018-07-06T06:22:06.802Z,5.00
2018-07-06T06:23:06.897Z,4.80
2018-07-06T06:24:06.997Z,5.50
2018-07-06T06:25:07.095Z,4.80
2018-07-06T06:26:07.240Z,4.80
2018-07-06T06:27:07.334Z,4.90
2018-07-06T06:28:07.431Z,4.50
2018-07-06T06:29:07.566Z,5.10
2018-07-06T06:30:07.667Z,5.20
2018-07-06T06:31:07.802Z,5.00
2018-07-06T06:32:07.907Z,4.80
2018-07-06T06:33:08.079Z,5.00
2018-07-06T06:34:08.120Z,4.80
2018-07-06T06:35:08.226Z,4.80
2018-07-06T06:36:08.332Z,4.90
2018-07-06T06:37:08.439Z,5.30
2018-07-06T06:38:08.545Z,4.70
2018-07-06T06:39:08.650Z,4.90
2018-07-06T06:40:08.756Z,4.80
2018-07-06T06:41:08.863Z,4.60
2018-07-06T06:42:08.971Z,4.70
2018-07-06T06:43:09.076Z,5.00
2018-07-06T06:44:09.191Z,5.20
2018-07-06T06:45:09.291Z,5.60
2018-07-06T06:46:09.396Z,5.20
2018-07-06T06:47:09.503Z,5.90
2018-07-06T06:48:09.607Z,4.70
2018-07-06T06:49:09.713Z,4.20
2018-07-06T06:50:09.817Z,5.10
2018-07-06T06:51:09.921Z,5.40
2018-07-06T06:52:10.027Z,4.90
2018-07-06T06:53:10.177Z,5.20
2018-07-06T06:54:10.233Z,5.00
2018-07-06T06:55:10.342Z,5.30
2018-07-06T06:56:10.454Z,4.80
2018-07-06T06:57:10.542Z,4.90
2018-07-06T06:58:10.646Z,4.90
2018-07-06T06:59:10.747Z,5.20
2018-07-06T07:00:10.850Z,5.00
2018-07-06T07:01:10.954Z,5.30
2018-07-06T07:02:11.058Z,5.00
2018-07-06T07:03:11.183Z,5.40
2018-07-06T07:04:11.291Z,5.00
2018-07-06T07:05:11.393Z,5.80
2018-07-06T07:06:11.497Z,5.30
2018-07-06T07:07:11.600Z,5.20
2018-07-06T07:08:11.743Z,5.90
2018-07-06T07:09:11.811Z,5.20
2018-07-06T07:10:11.916Z,4.90
2018-07-06T07:11:12.032Z,5.00
2018-07-06T07:12:12.138Z,4.70
2018-07-06T07:13:12.242Z,5.50
2018-07-06T07:14:12.433Z,4.80
2018-07-06T07:15:12.450Z,5.30
2018-07-06T07:16:12.553Z,5.10
2018-07-06T07:17:12.657Z,8.00
2018-07-06T07:18:12.762Z,4.90
2018-07-06T07:19:12.867Z,5.00
2018-07-06T07:20:12.971Z,5.30
2018-07-06T07:21:13.071Z,5.70
2018-07-06T07:22:13.172Z,5.00
2018-07-06T07:23:13.275Z,5.20
2018-07-06T07:24:13.380Z,5.90
2018-07-06T07:25:13.485Z,6.30
2018-07-06T07:26:13.590Z,5.30
2018-07-06T07:27:13.695Z,4.90
2018-07-06T07:28:13.790Z,6.60
2018-07-06T07:29:13.893Z,5.10
2018-07-06T07:30:14.070Z,5.00
2018-07-06T07:31:14.101Z,4.60
2018-07-06T07:32:14.208Z,4.80
2018-07-06T07:33:14.313Z,4.70
2018-07-06T07:34:14.419Z,5.20
2018-07-06T07:35:14.515Z,5.30
2018-07-06T07:36:14.618Z,5.60
2018-07-06T07:37:14.721Z,5.70
2018-07-06T07:38:14.823Z,5.30
2018-07-06T07:39:14.926Z,5.70
2018-07-06T07:40:15.031Z,5.10
2018-07-06T07:41:15.134Z,4.80
2018-07-06T07:42:15.226Z,5.30
2018-07-06T07:43:15.345Z,5.20
2018-07-06T07:44:15.449Z,5.70
2018-07-06T07:45:15.551Z,5.80
2018-07-06T07:46:15.656Z,5.10
2018-07-06T07:47:15.761Z,5.30
2018-07-06T07:48:15.867Z,5.20
2018-07-06T07:49:15.974Z,5.10
2018-07-06T07:50:16.084Z,6.10
2018-07-06T07:51:16.182Z,5.80
2018-07-06T07:52:16.286Z,5.30
2018-07-06T07:53:16.388Z,6.10
2018-07-06T07:54:16.490Z,5.90
2018-07-06T07:55:16.594Z,6.10
2018-07-06T07:56:16.710Z,6.20
2018-07-06T07:57:16.818Z,5.40
2018-07-06T07:58:16.915Z,6.00
2018-07-06T07:59:17.019Z,6.50
2018-07-06T08:00:17.159Z,5.80
2018-07-06T08:01:17.389Z,7.30
2018-07-06T08:02:17.336Z,6.30
2018-07-06T08:03:17.436Z,6.00
2018-07-06T08:04:17.540Z,5.80
2018-07-06T08:05:17.644Z,6.10
2018-07-06T08:06:17.747Z,6.70
2018-07-06T08:07:17.846Z,6.20
2018-07-06T08:08:17.952Z,5.90
2018-07-06T08:09:18.058Z,5.40
2018-07-06T08:10:18.162Z,5.00
2018-07-06T08:11:18.259Z,5.90
2018-07-06T08:12:18.362Z,5.50
2018-07-06T08:13:18.464Z,6.60
2018-07-06T08:14:18.597Z,5.60
2018-07-06T08:15:18.671Z,5.60
2018-07-06T08:16:18.770Z,5.90
2018-07-06T08:17:18.877Z,6.10
2018-07-06T08:18:19.029Z,5.90
2018-07-06T08:19:19.073Z,5.80
2018-07-06T08:20:19.177Z,6.20
2018-07-06T08:21:19.279Z,5.70
2018-07-06T08:22:19.381Z,5.50
2018-07-06T08:23:19.485Z,5.70
2018-07-06T08:24:19.589Z,5.60
2018-07-06T08:25:19.684Z,6.10
2018-07-06T08:26:19.785Z,6.20
2018-07-06T08:27:19.889Z,5.80
2018-07-06T08:28:19.994Z,5.40
2018-07-06T08:29:20.097Z,5.40
2018-07-06T08:30:20.213Z,5.80
2018-07-06T08:31:20.303Z,5.20
2018-07-06T08:32:20.409Z,5.30
2018-07-06T08:33:20.518Z,4.90
2018-07-06T08:34:20.616Z,4.70
2018-07-06T08:35:20.721Z,5.20
2018-07-06T08:36:20.836Z,5.40
2018-07-06T08:37:20.929Z,6.00
2018-07-06T08:38:21.029Z,6.30
2018-07-06T08:39:21.122Z,5.70
2018-07-06T08:40:21.261Z,5.30
2018-07-06T08:41:22.126Z,5.10
2018-07-06T08:42:21.477Z,5.80
2018-07-06T08:43:21.627Z,5.30
2018-07-06T08:44:21.751Z,5.20
2018-07-06T08:45:21.845Z,6.30
2018-07-06T08:46:21.941Z,6.00
2018-07-06T08:47:22.036Z,5.90
2018-07-06T08:48:22.136Z,7.20
2018-07-06T08:49:22.235Z,6.80
2018-07-06T08:50:22.385Z,5.70
2018-07-06T08:51:22.537Z,5.50
2018-07-06T08:52:22.673Z,5.40
2018-07-06T08:53:22.769Z,5.20
2018-07-06T08:54:22.858Z,5.50
2018-07-06T08:55:22.952Z,5.60
2018-07-06T08:56:23.047Z,6.10
2018-07-06T08:57:23.158Z,5.30
2018-07-06T08:58:23.276Z,5.30
2018-07-06T08:59:23.352Z,5.70
2018-07-06T09:00:23.447Z,5.50
2018-07-06T09:01:23.583Z,5.80
2018-07-06T09:02:23.735Z,5.50
2018-07-06T09:03:23.752Z,5.70
2018-07-06T09:04:23.990Z,4.90
2018-07-06T09:05:23.957Z,6.10
2018-07-06T09:06:24.048Z,5.70
2018-07-06T09:07:24.159Z,6.20
2018-07-06T09:08:24.310Z,5.70
2018-07-06T09:09:24.795Z,6.00
2018-07-06T09:10:24.519Z,5.40
2018-07-06T09:11:24.620Z,5.50
2018-07-06T09:12:24.720Z,5.60
2018-07-06T09:13:24.828Z,5.00
2018-07-06T09:14:24.958Z,6.60
2018-07-06T09:15:25.055Z,5.10
2018-07-06T09:16:25.200Z,5.20
2018-07-06T09:17:25.228Z,4.40
2018-07-06T09:18:25.324Z,4.90
2018-07-06T09:19:25.476Z,4.60
2018-07-06T09:20:25.550Z,4.70
2018-07-06T09:21:25.682Z,8.20
2018-07-06T09:22:25.819Z,5.10
2018-07-06T09:23:25.959Z,5.00
2018-07-06T09:24:26.057Z,4.80
2018-07-06T09:25:26.302Z,4.70
2018-07-06T09:26:26.282Z,4.20
2018-07-06T09:27:26.407Z,4.10
2018-07-06T09:28:26.549Z,4.50
2018-07-06T09:29:26.675Z,4.90
2018-07-06T09:30:26.809Z,4.60
2018-07-06T09:31:26.919Z,5.00
2018-07-06T09:32:27.028Z,4.50
2018-07-06T09:33:27.154Z,5.00
2018-07-06T09:34:27.264Z,4.80
2018-07-06T09:35:27.357Z,4.70
2018-07-06T09:36:27.481Z,6.20
2018-07-06T09:37:27.593Z,5.70
2018-07-06T09:38:27.686Z,5.10
2018-07-06T09:39:27.810Z,5.00
2018-07-06T09:40:27.909Z,4.80
2018-07-06T09:41:28.042Z,4.90
2018-07-06T09:42:28.157Z,5.00
2018-07-06T09:43:28.294Z,5.60
2018-07-06T09:44:28.374Z,5.20
2018-07-06T09:45:28.475Z,4.90
2018-07-06T09:46:28.591Z,5.00
2018-07-06T09:47:28.686Z,4.80
2018-07-06T09:48:28.808Z,4.70
2018-07-06T09:49:28.911Z,4.40
2018-07-06T09:50:29.023Z,4.90
2018-07-06T09:51:29.160Z,5.20
2018-07-06T09:52:29.292Z,5.90
2018-07-06T09:53:29.395Z,6.10
2018-07-06T09:54:29.502Z,6.00
2018-07-06T09:55:29.613Z,5.50
2018-07-06T09:56:29.715Z,6.40
2018-07-06T09:57:29.816Z,6.70
2018-07-06T09:58:29.952Z,5.60
2018-07-06T09:59:30.053Z,5.40
2018-07-06T10:00:30.158Z,5.30
2018-07-06T10:01:30.249Z,5.20
2018-07-06T10:02:30.369Z,5.70
2018-07-06T10:03:30.478Z,7.00
2018-07-06T10:04:30.594Z,5.50
2018-07-06T10:05:30.693Z,5.90
2018-07-06T10:06:30.786Z,5.50
2018-07-06T10:07:30.920Z,5.90
2018-07-06T10:08:31.023Z,5.70
2018-07-06T10:09:31.132Z,5.80
2018-07-06T10:10:31.229Z,5.60
2018-07-06T10:11:31.335Z,6.30
2018-07-06T10:12:31.479Z,5.80
2018-07-06T10:13:31.569Z,5.70
2018-07-06T10:14:31.659Z,7.00
2018-07-06T10:15:31.769Z,5.40
2018-07-06T10:16:31.884Z,6.80
2018-07-06T10:17:31.978Z,5.70
2018-07-06T10:18:32.079Z,5.50
2018-07-06T10:19:32.234Z,5.50
2018-07-06T10:20:32.277Z,7.70
2018-07-06T10:21:32.388Z,6.70
2018-07-06T10:22:32.493Z,5.60
2018-07-06T10:23:32.587Z,6.20
2018-07-06T10:24:32.686Z,5.90
2018-07-06T10:25:32.797Z,6.60
2018-07-06T10:26:32.910Z,6.60
2018-07-06T10:27:33.029Z,6.30
2018-07-06T10:28:33.135Z,5.60
2018-07-06T10:29:33.233Z,5.70
2018-07-06T10:30:33.343Z,5.90
2018-07-06T10:31:33.445Z,5.50
2018-07-06T10:32:33.552Z,5.40
2018-07-06T10:33:33.727Z,5.60
2018-07-06T10:34:33.761Z,6.20
2018-07-06T10:35:33.863Z,6.40
2018-07-06T10:36:33.974Z,5.70
2018-07-06T10:37:34.087Z,5.70
2018-07-06T10:38:34.192Z,6.10
2018-07-06T10:39:34.342Z,5.70
2018-07-06T10:40:34.442Z,6.20
2018-07-06T10:41:34.525Z,6.10
2018-07-06T10:42:34.634Z,8.00
2018-07-06T10:43:34.738Z,5.60
2018-07-06T10:44:34.844Z,6.10
2018-07-06T10:45:34.951Z,5.90
2018-07-06T10:46:35.057Z,5.50
2018-07-06T10:47:35.175Z,6.90
2018-07-06T10:48:35.317Z,5.90
2018-07-06T10:49:35.446Z,5.30
2018-07-06T10:50:35.561Z,6.10
2018-07-06T10:51:35.686Z,5.60
2018-07-06T10:52:35.799Z,6.20
2018-07-06T10:53:35.905Z,5.80
2018-07-06T10:54:36.012Z,5.90
2018-07-06T10:55:36.122Z,5.40
2018-07-06T10:56:36.218Z,5.70
2018-07-06T10:57:36.326Z,5.70
2018-07-06T10:58:36.559Z,5.50
2018-07-06T10:59:36.553Z,6.10
2018-07-06T11:00:36.659Z,7.40
2018-07-06T11:01:36.757Z,8.00
2018-07-06T11:02:36.889Z,7.30
2018-07-06T11:03:36.991Z,7.10
2018-07-06T11:04:37.098Z,7.40
2018-07-06T11:05:37.206Z,6.30
2018-07-06T11:06:37.316Z,7.00
2018-07-06T11:07:37.416Z,6.10
2018-07-06T11:08:37.518Z,6.10
2018-07-06T11:09:37.626Z,6.60
2018-07-06T11:10:37.717Z,6.80
2018-07-06T11:11:37.861Z,7.00
2018-07-06T11:12:37.936Z,6.60
2018-07-06T11:13:38.046Z,7.00
2018-07-06T11:14:38.155Z,6.50
2018-07-06T11:15:38.270Z,7.30
2018-07-06T11:16:38.368Z,8.40
2018-07-06T11:17:38.473Z,8.20
2018-07-06T11:18:38.580Z,8.80
2018-07-06T11:19:38.687Z,6.60
2018-07-06T11:20:38.791Z,7.20
2018-07-06T11:21:38.903Z,6.50
2018-07-06T11:22:39.004Z,7.70
2018-07-06T11:23:39.110Z,7.10
2018-07-06T11:24:39.213Z,7.00
2018-07-06T11:25:39.317Z,8.20
2018-07-06T11:26:39.424Z,7.00
2018-07-06T11:27:39.529Z,7.00
2018-07-06T11:28:39.631Z,7.00
2018-07-06T11:29:39.734Z,5.50
2018-07-06T11:30:39.836Z,6.00
2018-07-06T11:31:39.939Z,6.10
2018-07-06T11:32:40.047Z,6.50
2018-07-06T11:33:40.152Z,7.50
2018-07-06T11:34:40.256Z,6.60
2018-07-06T11:35:40.361Z,6.50
2018-07-06T11:36:40.460Z,6.30
2018-07-06T11:37:40.560Z,6.20
2018-07-06T11:38:40.667Z,5.60
2018-07-06T11:39:40.771Z,5.60
2018-07-06T11:40:40.879Z,5.30
2018-07-06T11:41:40.989Z,5.90
2018-07-06T11:42:41.092Z,5.70
2018-07-06T11:43:41.200Z,7.10
2018-07-06T11:44:41.300Z,6.80
2018-07-06T11:45:41.415Z,5.80
2018-07-06T11:46:41.514Z,6.40
2018-07-06T11:47:41.614Z,5.80
2018-07-06T11:48:41.718Z,5.70
2018-07-06T11:49:41.824Z,5.60
2018-07-06T11:50:41.958Z,6.00
2018-07-06T11:51:42.058Z,5.90
2018-07-06T11:52:42.160Z,5.60
2018-07-06T11:53:42.269Z,6.20
2018-07-06T11:54:42.373Z,6.00
2018-07-06T11:55:42.478Z,5.90
2018-07-06T11:56:42.584Z,6.20
2018-07-06T11:57:42.691Z,6.10
2018-07-06T11:58:42.790Z,5.90
2018-07-06T11:59:42.891Z,8.50
2018-07-06T12:00:42.994Z,6.30
2018-07-06T12:01:43.122Z,6.40
2018-07-06T12:02:43.205Z,7.20
2018-07-06T12:03:43.312Z,7.00
2018-07-06T12:04:43.417Z,7.50
2018-07-06T12:05:43.514Z,7.50
2018-07-06T12:06:43.632Z,7.00
2018-07-06T12:07:43.741Z,7.10
2018-07-06T12:08:43.844Z,7.50
2018-07-06T12:09:43.948Z,8.30
2018-07-06T12:10:44.054Z,7.40
2018-07-06T12:11:44.159Z,7.80
2018-07-06T12:12:44.264Z,7.60
2018-07-06T12:13:44.368Z,7.70
2018-07-06T12:14:44.479Z,8.50
2018-07-06T12:15:44.581Z,8.00
2018-07-06T12:16:44.686Z,8.80
2018-07-06T12:17:44.796Z,7.50
2018-07-06T12:18:44.901Z,8.20
2018-07-06T12:19:45.054Z,7.50
2018-07-06T12:20:45.153Z,10.20
2018-07-06T12:21:45.215Z,7.80
2018-07-06T12:22:45.322Z,9.30
2018-07-06T12:23:45.427Z,8.80
2018-07-06T12:24:45.533Z,8.70
2018-07-06T12:25:45.637Z,8.70
2018-07-06T12:26:45.744Z,8.50
2018-07-06T12:27:45.896Z,8.00
2018-07-06T12:28:45.943Z,8.40
2018-07-06T12:29:46.050Z,9.20
2018-07-06T12:30:46.160Z,8.00
2018-07-06T12:31:46.261Z,7.70
2018-07-06T12:32:46.366Z,7.20
2018-07-06T12:33:46.471Z,7.50
2018-07-06T12:34:46.564Z,8.20
2018-07-06T12:35:46.682Z,9.80
2018-07-06T12:36:46.787Z,10.10
2018-07-06T12:37:46.893Z,7.40
2018-07-06T12:38:46.998Z,7.20
2018-07-06T12:39:47.104Z,6.90
2018-07-06T12:40:47.209Z,7.30
2018-07-06T12:41:47.315Z,6.90
2018-07-06T12:42:47.422Z,6.70
2018-07-06T12:43:47.527Z,7.30
2018-07-06T12:44:47.629Z,8.40
2018-07-06T12:45:47.734Z,6.10
2018-07-06T12:46:47.841Z,6.10
2018-07-06T12:47:47.946Z,6.00
2018-07-06T12:48:48.056Z,5.90
2018-07-06T12:49:48.157Z,6.00
2018-07-06T12:50:48.293Z,5.90
2018-07-06T12:51:48.367Z,5.60
2018-07-06T12:52:48.469Z,6.10
2018-07-06T12:53:48.575Z,5.60
2018-07-06T12:54:48.681Z,6.50
2018-07-06T12:55:48.787Z,7.40
2018-07-06T12:56:48.895Z,6.50
2018-07-06T12:57:48.995Z,5.90
2018-07-06T12:58:49.199Z,6.40
2018-07-06T12:59:49.205Z,6.40
2018-07-06T13:00:49.310Z,6.60
2018-07-06T13:01:49.417Z,6.80
2018-07-06T13:02:49.523Z,5.70
2018-07-06T13:03:49.613Z,7.30
2018-07-06T13:04:49.733Z,6.20
2018-07-06T13:05:49.838Z,6.30
2018-07-06T13:06:49.945Z,6.60
2018-07-06T13:07:50.050Z,5.70
2018-07-06T13:08:50.157Z,7.20
2018-07-06T13:09:50.268Z,5.20
2018-07-06T13:10:50.384Z,7.40
2018-07-06T13:11:50.490Z,6.70
2018-07-06T13:12:50.597Z,7.50
2018-07-06T13:13:50.703Z,5.60
2018-07-06T13:14:50.809Z,5.60
2018-07-06T13:15:50.912Z,5.50
2018-07-06T13:16:51.019Z,5.30
2018-07-06T13:17:51.127Z,7.00
2018-07-06T13:18:51.227Z,5.90
2018-07-06T13:19:51.324Z,5.60